• Join FlightAware (Why Join?)
  • Login
  • US Flag 
04:41PM EDT


 

Airport Tracker/Info


-or-


 

Live Flight TrackerFlight Track Log ✈ N29305 ✈ 16-Jul-2013 ✈ KPTK - KHYX

Flight Track Log - Related Links

Times and Time Zones

All times are in EDT time to prevent confusion due to time zone crossing. See the N29305 flight status page for this flight to view local times or setup timezone preferences in your user account.

Time Position Orientation Groundspeed Altitude Reporting Facility
EDT Latitude Longitude Course Direction KTS MPH feet Rate Location/Type
10:06AM 42.6644 -83.4381 265° West 94 108 1,500  Level Cleveland Center
10:07AM 42.6614 -83.4831 265° West 92 106 2,300 540 Climbing Cleveland Center
10:08AM 42.6669 -83.5114 285° West 91 105 2,800 420 Climbing Cleveland Center
10:09AM 42.6894 -83.5181 348° North 95 109 3,200 420 Climbing Cleveland Center
10:11AM 42.7226 -83.4706 46° Northeast  Level FlightAware Approximate
10:18AM 42.9443 -83.4082 325° Northwest  Level FlightAware Approximate
10:19AM 42.9716 -83.4340 325° Northwest  Level FlightAware Approximate
10:20AM 42.9989 -83.4597 325° Northwest  Level FlightAware Approximate
10:21AM 43.0263 -83.4855 325° Northwest  Level FlightAware Approximate
10:22AM 43.0536 -83.5113 325° Northwest  Level FlightAware Approximate
10:23AM 43.0809 -83.5371 325° Northwest  Level FlightAware Approximate
10:24AM 43.1082 -83.5630 325° Northwest  Level FlightAware Approximate
10:25AM 43.1355 -83.5888 325° Northwest  Level FlightAware Approximate
10:26AM 43.1628 -83.6147 325° Northwest  Level FlightAware Approximate
10:27AM 43.1901 -83.6406 325° Northwest  Level FlightAware Approximate
10:28AM 43.2186 -83.6639 331° Northwest  Level FlightAware Approximate
10:29AM 43.2477 -83.6858 331° Northwest  Level FlightAware Approximate
10:30AM 43.2761 -83.7094 324° Northwest  Level FlightAware Approximate
10:31AM 43.3029 -83.7362 324° Northwest  Level FlightAware Approximate
10:32AM 43.3298 -83.7630 324° Northwest  Level FlightAware Approximate
10:33AM 43.3566 -83.7899 324° Northwest  Level FlightAware Approximate
10:34AM 43.3835 -83.8168 334° Northwest  Level FlightAware Approximate
10:35AM 43.4134 -83.8367 334° Northwest  Level FlightAware Approximate
10:36AM 43.4333 -83.8500 334° Northwest  Level FlightAware Approximate